Time;durP1;ratioP1;P1;durP2;ratioP2;P2;SDS_P1;SDS_P2;PMS_P1;PMS_P2;Temp;Humidity;BMP_temperature;BMP_pressure;BME280_temperature;BME280_humidity;BME280_pressure;Samples;Min_cycle;Max_cycle;Signal;HPM_P1;HPM_P2
2022/08/01 00:00:23;;;;;;;;;2.00;2.00;;;;;24.67;50.79;101482.81;5099666;27;45300;-55
2022/08/01 00:02:48;;;;;;;;;0.75;0.75;;;;;24.63;51.58;101470.72;5099003;27;45341;-56
2022/08/01 00:05:14;;;;;;;;;0.50;0.50;;;;;24.62;51.15;101480.78;5099416;27;45470;-55
2022/08/01 00:07:40;;;;;;;;;1.50;1.50;;;;;24.61;51.53;101478.28;5099436;27;45304;-57
2022/08/01 00:10:09;;;;;;;;;1.25;1.25;;;;;24.56;51.43;101478.91;5099428;27;45489;-55
2022/08/01 00:12:35;;;;;;;;;0.40;0.00;;;;;24.44;51.65;101467.13;5098881;27;46741;-55
2022/08/01 00:15:00;;;;;;;;;0.00;0.00;;;;;24.54;51.92;101482.94;5099398;27;45347;-57
2022/08/01 00:17:26;;;;;;;;;0.75;0.75;;;;;24.53;51.40;101479.38;5099020;27;45455;-56
2022/08/01 00:19:51;;;;;;;;;1.00;0.00;;;;;24.51;51.62;101477.94;5099461;27;45297;-56
2022/08/01 00:22:17;;;;;;;;;0.75;0.75;;;;;24.51;51.98;101480.66;5099064;27;45367;-56
2022/08/01 00:24:42;;;;;;;;;0.75;0.75;;;;;24.51;52.04;101475.19;5099035;27;45366;-57
2022/08/01 00:27:07;;;;;;;;;0.25;0.25;;;;;24.47;52.04;101472.09;5099135;27;45249;-55
2022/08/01 00:29:33;;;;;;;;;1.00;1.00;;;;;24.45;52.29;101471.50;5099381;27;45251;-57
2022/08/01 00:31:58;;;;;;;;;1.00;1.00;;;;;24.43;52.20;101459.97;5099019;27;45234;-55
2022/08/01 00:34:23;;;;;;;;;2.00;0.00;;;;;24.43;52.15;101468.16;5098651;27;45233;-55
2022/08/01 00:36:49;;;;;;;;;1.00;0.25;;;;;24.41;52.15;101462.09;5098952;27;45630;-55
2022/08/01 00:39:14;;;;;;;;;1.50;0.00;;;;;24.39;52.09;101459.59;5099220;27;45215;-54
2022/08/01 00:41:39;;;;;;;;;1.75;1.00;;;;;24.38;52.05;101459.81;5098730;27;45310;-57
2022/08/01 00:44:05;;;;;;;;;2.00;1.25;;;;;24.37;52.36;101460.84;5099036;27;45225;-56
2022/08/01 00:46:32;;;;;;;;;1.25;0.75;;;;;24.38;52.20;101454.38;5098916;27;45332;-55
2022/08/01 00:48:57;;;;;;;;;2.00;0.60;;;;;24.38;52.06;101457.09;5099036;27;45406;-56
2022/08/01 00:51:23;;;;;;;;;1.00;1.00;;;;;24.42;52.60;101458.31;5098544;27;46430;-56
2022/08/01 00:53:50;;;;;;;;;0.75;0.75;;;;;24.45;52.35;101443.47;5098548;27;45552;-57
2022/08/01 00:56:16;;;;;;;;;0.00;0.00;;;;;24.44;51.90;101458.97;5098791;27;45329;-55
2022/08/01 00:58:42;;;;;;;;;1.00;1.00;;;;;24.44;52.02;101452.66;5098886;27;45414;-57
2022/08/01 01:01:07;;;;;;;;;0.00;0.00;;;;;24.41;51.92;101448.50;5098390;27;46038;-55
2022/08/01 01:03:33;;;;;;;;;0.50;0.00;;;;;24.29;51.90;101433.94;5098380;27;45374;-57
2022/08/01 01:06:15;;;;;;;;;3.00;1.00;;;;;24.31;51.76;101442.69;5098555;27;45293;-57
2022/08/01 01:08:47;;;;;;;;;0.60;0.60;;;;;24.35;52.04;101450.19;5098630;27;45312;-55
2022/08/01 01:11:28;;;;;;;;;0.80;0.80;;;;;24.31;51.86;101445.41;5098294;27;45475;-56
2022/08/01 01:14:01;;;;;;;;;0.00;0.00;;;;;24.29;51.60;101448.34;5098406;27;45269;-56
2022/08/01 01:16:30;;;;;;;;;0.00;0.00;;;;;24.29;52.11;101450.25;5098369;27;45439;-56
2022/08/01 01:19:00;;;;;;;;;0.80;0.80;;;;;24.25;52.28;101447.13;5098375;27;45242;-57
2022/08/01 01:21:47;;;;;;;;;1.00;1.00;;;;;24.23;52.13;101448.38;5098298;27;45377;-56
2022/08/01 01:24:40;;;;;;;;;0.80;0.00;;;;;24.19;52.20;101441.72;5098241;27;45265;-56
2022/08/01 01:27:27;;;;;;;;;1.00;1.00;;;;;24.17;52.38;101438.41;5098391;27;45402;-57
2022/08/01 01:29:56;;;;;;;;;0.80;0.60;;;;;24.13;52.29;101438.84;5098485;27;45316;-55
2022/08/01 01:32:33;;;;;;;;;1.40;0.00;;;;;24.09;52.08;101448.47;5097984;27;46085;-56
2022/08/01 01:35:00;;;;;;;;;0.40;0.00;;;;;24.07;52.24;101447.06;5097741;27;45363;-57
2022/08/01 01:37:27;;;;;;;;;0.00;0.00;;;;;24.09;52.39;101461.25;5097209;27;45461;-54
2022/08/01 01:39:54;;;;;;;;;0.20;0.00;;;;;24.12;52.35;101448.06;5098252;27;45335;-57
2022/08/01 01:42:21;;;;;;;;;0.00;0.00;;;;;24.15;52.30;101441.34;5097814;27;46427;-56
2022/08/01 01:44:49;;;;;;;;;0.00;0.00;;;;;24.14;52.23;101445.97;5097925;27;45276;-55
2022/08/01 01:47:17;;;;;;;;;0.60;0.60;;;;;24.16;51.91;101445.72;5097871;27;45481;-56
2022/08/01 01:49:45;;;;;;;;;0.00;0.00;;;;;24.19;52.29;101448.03;5096517;27;45339;-55
2022/08/01 01:52:14;;;;;;;;;0.00;0.00;;;;;24.20;52.13;101443.41;5097693;27;45507;-54
2022/08/01 01:54:45;;;;;;;;;0.00;0.00;;;;;24.19;51.82;101437.16;5097634;27;45275;-54
2022/08/01 01:57:12;;;;;;;;;0.20;0.20;;;;;24.16;52.48;101426.69;5097748;27;45409;-55
2022/08/01 01:59:39;;;;;;;;;0.00;0.00;;;;;24.13;52.49;101416.25;5098042;27;45389;-56
2022/08/01 02:02:07;;;;;;;;;0.60;0.60;;;;;24.25;51.95;101436.25;5097509;27;45342;-55
2022/08/01 02:04:37;;;;;;;;;0.80;0.80;;;;;24.24;52.08;101433.75;5097454;27;45316;-57
2022/08/01 02:07:04;;;;;;;;;0.80;0.80;;;;;24.19;52.20;101433.56;5097831;27;45333;-54
2022/08/01 02:09:31;;;;;;;;;0.00;0.00;;;;;24.15;51.97;101431.31;5097757;27;45469;-55
2022/08/01 02:11:59;;;;;;;;;0.80;0.80;;;;;24.13;52.30;101438.00;5097638;27;46117;-55
2022/08/01 02:14:26;;;;;;;;;1.00;0.00;;;;;24.11;52.15;101435.53;5097292;27;45327;-56
2022/08/01 02:16:54;;;;;;;;;0.60;0.60;;;;;24.11;52.15;101435.53;5097615;27;45499;-59
2022/08/01 02:19:20;;;;;;;;;0.40;0.00;;;;;24.10;51.95;101433.00;5097828;27;45371;-54
2022/08/01 02:21:52;;;;;;;;;2.00;0.80;;;;;24.06;52.31;101424.47;5097058;27;46040;-56
2022/08/01 02:24:36;;;;;;;;;0.00;0.00;;;;;24.07;51.96;101431.56;5095874;27;45425;-57
2022/08/01 02:27:10;;;;;;;;;1.00;0.00;;;;;24.07;52.27;101431.56;5097422;27;45241;-56
2022/08/01 02:29:46;;;;;;;;;0.80;0.00;;;;;24.06;52.30;101427.19;5097962;27;45335;-56
2022/08/01 02:32:24;;;;;;;;;1.00;1.00;;;;;24.06;52.08;101432.63;5097186;27;46068;-55
2022/08/01 02:34:51;;;;;;;;;0.00;0.00;;;;;24.04;52.38;101434.72;5096794;27;45339;-55
2022/08/01 02:37:18;;;;;;;;;0.00;0.00;;;;;24.00;52.16;101436.22;5097417;27;45418;-57
2022/08/01 02:39:50;;;;;;;;;1.00;1.00;;;;;23.94;52.93;101420.78;5097500;27;45206;-56
2022/08/01 02:42:18;;;;;;;;;0.00;0.00;;;;;23.95;52.52;101430.59;5097241;27;45349;-57
2022/08/01 02:44:48;;;;;;;;;0.80;0.80;;;;;24.01;52.19;101432.44;5097074;27;45253;-58
2022/08/01 02:47:16;;;;;;;;;0.00;0.00;;;;;24.03;52.84;101433.06;5096746;27;45420;-57
2022/08/01 02:49:45;;;;;;;;;0.80;0.80;;;;;24.05;52.77;101430.94;5099335;27;45504;-56
2022/08/01 02:52:14;;;;;;;;;1.00;1.00;;;;;24.04;52.95;101434.72;5100631;27;46263;-56
2022/08/01 02:54:41;;;;;;;;;1.00;1.00;;;;;24.10;53.24;101433.88;5100418;27;45450;-56
2022/08/01 02:57:08;;;;;;;;;0.60;0.60;;;;;24.13;53.21;101427.13;5100642;27;45330;-55
2022/08/01 02:59:37;;;;;;;;;1.00;1.00;;;;;24.15;52.67;101433.19;5100928;27;45198;-55
2022/08/01 03:02:05;;;;;;;;;0.60;0.60;;;;;24.07;52.36;101414.44;5100468;27;46927;-59
2022/08/01 03:04:33;;;;;;;;;1.40;1.40;;;;;24.17;52.95;101430.25;5100156;27;45330;-56
2022/08/01 03:07:01;;;;;;;;;0.80;0.80;;;;;24.15;52.36;101430.47;5100545;27;45297;-56
2022/08/01 03:09:29;;;;;;;;;0.80;0.60;;;;;24.12;52.23;101429.03;5100600;27;45494;-57
2022/08/01 03:12:00;;;;;;;;;0.00;0.00;;;;;24.12;52.26;101428.19;5100410;27;45400;-55
2022/08/01 03:14:27;;;;;;;;;0.80;0.80;;;;;24.10;52.18;101420.28;5100155;27;45227;-55
2022/08/01 03:16:55;;;;;;;;;0.00;0.00;;;;;24.12;52.57;101425.47;5100235;27;45422;-61
2022/08/01 03:19:23;;;;;;;;;0.20;0.20;;;;;24.11;52.52;101426.53;5100290;27;45341;-62
2022/08/01 03:21:50;;;;;;;;;0.60;0.60;;;;;24.11;52.37;101434.69;5100045;27;46165;-62
2022/08/01 03:24:17;;;;;;;;;1.20;0.80;;;;;24.11;52.25;101431.97;5100249;27;45243;-62
2022/08/01 03:26:44;;;;;;;;;1.00;1.00;;;;;24.10;51.94;101425.72;5100159;27;45483;-61
2022/08/01 03:29:19;;;;;;;;;1.80;1.80;;;;;24.11;52.09;101430.09;5100195;27;45368;-63
2022/08/01 03:31:47;;;;;;;;;0.00;0.00;;;;;24.10;52.59;101435.72;5099874;27;45399;-61
2022/08/01 03:34:13;;;;;;;;;0.20;0.20;;;;;24.11;52.20;101440.13;5099829;27;45476;-62
2022/08/01 03:36:47;;;;;;;;;1.00;0.50;;;;;24.10;52.27;101439.31;5100096;27;45411;-61
2022/08/01 03:39:14;;;;;;;;;0.80;0.80;;;;;24.12;52.12;101439.91;5100066;27;45410;-64
2022/08/01 03:41:45;;;;;;;;;1.20;1.20;;;;;24.13;52.04;101435.28;5099866;27;46178;-61
2022/08/01 03:44:19;;;;;;;;;0.60;0.60;;;;;24.12;52.20;101437.19;5099799;27;45322;-63
2022/08/01 03:46:48;;;;;;;;;0.00;0.00;;;;;24.11;52.44;101438.25;5099966;27;45311;-61
2022/08/01 03:49:47;;;;;;;;;1.00;1.00;;;;;24.12;52.34;101441.78;5099775;27;45370;-63
2022/08/01 03:52:14;;;;;;;;;1.80;1.80;;;;;24.09;52.67;101434.88;5076695;28;45454;-62
2022/08/01 03:54:46;;;;;;;;;1.00;1.00;;;;;24.01;52.69;101418.84;5076743;28;45414;-62
2022/08/01 03:57:12;;;;;;;;;0.20;0.20;;;;;24.11;52.26;101445.56;5076993;28;45345;-63
2022/08/01 03:59:39;;;;;;;;;1.00;1.00;;;;;24.10;52.93;101446.59;5077170;28;45471;-61
2022/08/01 04:02:06;;;;;;;;;1.80;1.80;;;;;24.07;52.12;101438.91;5076112;28;46392;-59
2022/08/01 04:04:32;;;;;;;;;2.20;0.80;;;;;23.96;53.16;101426.00;5076455;28;45344;-61
2022/08/01 04:07:03;;;;;;;;;0.80;0.80;;;;;24.03;52.30;101440.38;5076932;28;45446;-63
2022/08/01 04:09:30;;;;;;;;;1.40;1.40;;;;;24.01;52.63;101437.88;5077041;28;45292;-62
2022/08/01 04:11:56;;;;;;;;;1.00;1.00;;;;;24.01;52.57;101437.03;5076584;28;47230;-61
2022/08/01 04:14:21;;;;;;;;;0.00;0.00;;;;;23.99;52.91;101437.28;5076342;27;45438;-61
2022/08/01 04:16:47;;;;;;;;;0.00;0.00;;;;;23.97;52.93;101428.47;5076954;28;45415;-63
2022/08/01 04:19:12;;;;;;;;;0.50;0.50;;;;;23.97;53.21;101423.06;5077058;28;45388;-61
2022/08/01 04:21:37;;;;;;;;;0.50;0.50;;;;;23.98;53.17;101422.03;5076489;28;46029;-63
2022/08/01 04:24:13;;;;;;;;;0.50;0.50;;;;;23.96;52.73;101426.81;5076564;28;45419;-57
2022/08/01 04:26:43;;;;;;;;;0.00;0.00;;;;;23.97;53.35;101423.06;5077431;27;45481;-59
2022/08/01 04:29:10;;;;;;;;;0.60;0.60;;;;;23.97;52.70;101422.22;5099635;27;45368;-56
2022/08/01 04:31:36;;;;;;;;;2.00;1.60;;;;;23.95;52.72;101419.72;5099225;27;46353;-58
2022/08/01 04:34:05;;;;;;;;;0.00;0.00;;;;;23.96;52.84;101420.56;5099019;27;45400;-56
2022/08/01 04:36:34;;;;;;;;;0.00;0.00;;;;;23.94;52.85;101415.34;5099150;27;45416;-56
2022/08/01 04:39:02;;;;;;;;;1.80;0.60;;;;;23.93;53.07;101424.53;5099306;27;45510;-58
2022/08/01 04:41:29;;;;;;;;;2.20;0.40;;;;;23.92;53.43;101419.34;5098726;27;46881;-56
2022/08/01 04:43:55;;;;;;;;;0.00;0.00;;;;;23.92;53.18;101419.34;5098923;27;45464;-55
2022/08/01 04:46:22;;;;;;;;;0.50;0.50;;;;;23.93;53.21;101421.00;5098953;27;45400;-55
2022/08/01 04:48:49;;;;;;;;;1.60;0.20;;;;;23.93;53.12;101421.00;5098930;27;45192;-56
2022/08/01 04:51:15;;;;;;;;;0.00;0.00;;;;;23.92;53.73;101416.63;5098455;27;47328;-55
2022/08/01 04:53:42;;;;;;;;;2.60;1.40;;;;;23.89;53.81;101424.16;5098632;27;45603;-58
2022/08/01 04:56:08;;;;;;;;;2.20;0.20;;;;;23.87;53.82;101426.25;5097399;27;45324;-61
2022/08/01 04:58:33;;;;;;;;;1.50;1.50;;;;;23.90;53.93;101431.25;5098879;27;45446;-56
2022/08/01 05:00:59;;;;;;;;;2.25;1.00;;;;;23.91;53.97;101432.09;5098313;27;47128;-58
2022/08/01 05:03:24;;;;;;;;;3.00;0.75;;;;;23.93;54.27;101435.41;5098563;27;45353;-55
2022/08/01 05:05:49;;;;;;;;;2.50;0.50;;;;;23.94;53.64;101437.09;5098292;27;45548;-60
2022/08/01 05:08:16;;;;;;;;;0.00;0.00;;;;;23.88;54.33;101427.09;5098702;27;45544;-57
2022/08/01 05:10:41;;;;;;;;;1.80;0.80;;;;;23.98;54.28;101437.50;5098184;27;46154;-61
2022/08/01 05:13:06;;;;;;;;;0.75;0.75;;;;;23.98;54.25;101446.47;5097244;27;45229;-56
2022/08/01 05:15:32;;;;;;;;;0.50;0.50;;;;;24.01;54.27;101447.91;5098619;27;45343;-55
2022/08/01 05:17:57;;;;;;;;;1.00;1.00;;;;;23.99;54.50;101453.56;5098629;27;45198;-56
2022/08/01 05:20:23;;;;;;;;;1.50;1.00;;;;;23.96;54.54;101454.00;5098086;27;46073;-57
2022/08/01 05:22:48;;;;;;;;;1.00;1.00;;;;;23.95;54.83;101455.06;5097985;27;45256;-55
2022/08/01 05:25:13;;;;;;;;;0.75;0.50;;;;;23.94;54.79;101452.56;5098307;27;45323;-58
2022/08/01 05:27:40;;;;;;;;;2.00;2.00;;;;;23.94;55.16;101453.41;5098526;27;45384;-60
2022/08/01 05:30:09;;;;;;;;;0.80;0.80;;;;;23.93;54.14;101457.16;5098101;27;46059;-58
2022/08/01 05:32:35;;;;;;;;;0.00;0.00;;;;;23.92;54.94;101452.78;5098243;27;45495;-56
2022/08/01 05:35:01;;;;;;;;;1.25;0.50;;;;;23.93;54.88;101454.44;5098097;27;45459;-55
2022/08/01 05:37:26;;;;;;;;;2.75;1.00;;;;;23.95;55.17;101456.94;5098304;27;45523;-56
2022/08/01 05:39:51;;;;;;;;;2.25;0.75;;;;;23.92;55.01;101441.06;5098051;27;45286;-61
2022/08/01 05:42:17;;;;;;;;;1.25;1.00;;;;;23.99;55.19;101450.03;5097941;27;45294;-57
2022/08/01 05:44:42;;;;;;;;;1.25;1.25;;;;;24.03;54.86;101453.97;5098270;27;45333;-59
2022/08/01 05:47:07;;;;;;;;;1.00;0.75;;;;;24.05;54.55;101458.13;5098587;27;45501;-61
2022/08/01 05:49:33;;;;;;;;;3.00;2.00;;;;;24.10;54.38;101450.16;5098037;27;45561;-61
2022/08/01 05:52:00;;;;;;;;;0.75;0.75;;;;;24.11;54.10;101446.38;5098028;27;45365;-56
2022/08/01 05:54:26;;;;;;;;;1.80;0.00;;;;;24.14;54.13;101456.84;5097937;27;45348;-56
2022/08/01 05:56:51;;;;;;;;;1.00;1.00;;;;;24.17;54.19;101460.16;5097829;27;45381;-63
2022/08/01 05:59:16;;;;;;;;;1.00;1.00;;;;;24.10;53.86;101449.31;5097689;27;45315;-59
2022/08/01 06:01:42;;;;;;;;;1.00;1.00;;;;;24.13;53.74;101457.88;5097561;27;45346;-61
2022/08/01 06:04:07;;;;;;;;;0.75;0.75;;;;;24.15;53.28;101469.38;5097901;27;45368;-63
2022/08/01 06:06:32;;;;;;;;;0.75;0.75;;;;;24.14;53.32;101473.16;5097618;27;45341;-58
2022/08/01 06:08:58;;;;;;;;;1.50;1.00;;;;;24.14;53.52;101469.56;5097390;27;47306;-55
2022/08/01 06:11:23;;;;;;;;;0.25;0.00;;;;;24.15;53.44;101469.38;5096171;27;45314;-55
2022/08/01 06:13:48;;;;;;;;;0.75;0.75;;;;;24.16;53.59;101470.19;5097611;27;45729;-62
2022/08/01 06:16:14;;;;;;;;;0.25;0.25;;;;;24.10;53.38;101461.03;5097815;27;45287;-60
2022/08/01 06:18:40;;;;;;;;;1.00;1.00;;;;;24.09;53.32;101472.13;5096655;27;45456;-59
2022/08/01 06:21:05;;;;;;;;;0.75;0.75;;;;;24.05;53.61;101474.44;5097458;27;45460;-58
2022/08/01 06:23:30;;;;;;;;;1.00;1.00;;;;;24.03;54.02;101462.97;5096335;27;45347;-57
2022/08/01 06:25:56;;;;;;;;;1.00;1.00;;;;;24.03;53.61;101462.97;5101156;27;45429;-61
2022/08/01 06:28:22;;;;;;;;;1.00;1.00;;;;;24.09;53.59;101470.22;5100958;27;45304;-57
2022/08/01 06:30:47;;;;;;;;;0.75;0.75;;;;;24.11;53.80;101468.13;5100764;27;45240;-57
2022/08/01 06:33:12;;;;;;;;;1.00;1.00;;;;;24.10;53.05;101469.19;5100653;27;45499;-58
2022/08/01 06:35:38;;;;;;;;;1.00;0.50;;;;;24.17;53.15;101473.75;5101403;27;45549;-62
2022/08/01 06:38:03;;;;;;;;;0.00;0.00;;;;;24.20;53.41;101478.75;5100532;27;46050;-55
2022/08/01 06:40:29;;;;;;;;;2.00;2.00;;;;;24.24;53.38;101467.22;5100959;27;45381;-56
2022/08/01 06:42:54;;;;;;;;;0.25;0.25;;;;;24.28;53.14;101462.19;5101057;27;45318;-55
2022/08/01 06:45:22;;;;;;;;;1.00;1.00;;;;;24.33;52.86;101465.06;5101214;27;45378;-56
2022/08/01 06:47:48;;;;;;;;;1.80;1.80;;;;;24.34;52.85;101461.28;5100578;27;45473;-60
2022/08/01 06:50:14;;;;;;;;;0.80;0.80;;;;;24.37;52.96;101467.16;5100624;27;45369;-57
2022/08/01 06:52:40;;;;;;;;;1.00;1.00;;;;;24.38;53.23;101468.81;5100605;27;45282;-58
2022/08/01 06:55:06;;;;;;;;;0.50;0.50;;;;;24.39;52.75;101453.31;5100897;27;45335;-57
2022/08/01 06:57:31;;;;;;;;;1.25;1.00;;;;;24.55;52.61;101473.72;5100376;27;47200;-60
2022/08/01 06:59:57;;;;;;;;;0.50;0.50;;;;;24.51;52.57;101448.84;5100486;27;45464;-55
2022/08/01 07:02:23;;;;;;;;;0.50;0.50;;;;;24.69;52.02;101477.16;5100580;27;45221;-57
2022/08/01 07:04:48;;;;;;;;;2.00;2.00;;;;;24.76;51.71;101475.22;5100596;27;45530;-57
2022/08/01 07:07:13;;;;;;;;;1.00;1.00;;;;;24.76;51.94;101448.81;5100186;27;45274;-56
2022/08/01 07:09:42;;;;;;;;;1.00;1.00;;;;;25.02;51.24;101476.84;5100383;27;45451;-57
2022/08/01 07:12:07;;;;;;;;;1.20;1.20;;;;;25.22;50.79;101468.50;5100432;27;45331;-57
2022/08/01 07:14:33;;;;;;;;;1.50;1.50;;;;;25.46;50.58;101470.34;5100384;27;45342;-55
2022/08/01 07:16:58;;;;;;;;;2.25;0.75;;;;;25.70;50.12;101471.28;5100371;27;45284;-58
2022/08/01 07:19:24;;;;;;;;;1.00;1.00;;;;;25.99;49.62;101472.38;5100330;27;45392;-56
2022/08/01 07:21:49;;;;;;;;;1.25;1.25;;;;;26.13;48.83;101465.69;5100208;27;45307;-55
2022/08/01 07:24:15;;;;;;;;;1.00;1.00;;;;;26.23;48.48;101447.91;5100361;27;45360;-56
2022/08/01 07:26:45;;;;;;;;;2.00;2.00;;;;;26.41;48.81;101469.66;5099840;27;46142;-57
2022/08/01 07:29:11;;;;;;;;;0.60;0.60;;;;;26.44;48.26;101479.28;5100053;27;45310;-57
2022/08/01 07:31:36;;;;;;;;;1.00;1.00;;;;;26.39;47.75;101469.06;5100003;27;45455;-56
2022/08/01 07:34:02;;;;;;;;;1.50;1.50;;;;;26.41;47.97;101469.66;5100145;27;45304;-57
2022/08/01 07:36:27;;;;;;;;;1.50;1.50;;;;;26.36;47.76;101454.00;5098725;27;46377;-59
2022/08/01 07:38:53;;;;;;;;;3.00;1.00;;;;;26.48;47.77;101473.16;5098391;27;45266;-58
2022/08/01 07:41:18;;;;;;;;;0.75;0.50;;;;;26.38;47.26;101476.44;5100127;27;45376;-56
2022/08/01 07:43:44;;;;;;;;;2.00;2.00;;;;;26.27;47.78;101477.22;5100025;27;45215;-56
2022/08/01 07:46:09;;;;;;;;;1.75;1.75;;;;;26.12;47.52;101480.41;5099500;27;45692;-57
2022/08/01 07:48:34;;;;;;;;;1.00;1.00;;;;;26.01;48.50;101485.81;5098583;27;45441;-62
2022/08/01 07:51:00;;;;;;;;;2.00;2.00;;;;;25.92;48.75;101485.28;5099781;27;45242;-56
2022/08/01 07:53:25;;;;;;;;;2.00;1.00;;;;;25.82;48.52;101495.91;5099997;27;45455;-56
2022/08/01 07:55:51;;;;;;;;;1.00;1.00;;;;;25.60;48.96;101477.28;5099505;27;46065;-57
2022/08/01 07:58:17;;;;;;;;;0.75;0.75;;;;;25.69;48.92;101501.47;5099766;27;45328;-56
2022/08/01 08:00:43;;;;;;;;;2.50;1.00;;;;;25.59;49.51;101502.84;5099648;27;45469;-55
2022/08/01 08:03:08;;;;;;;;;1.00;1.00;;;;;25.52;49.13;101509.44;5099614;27;45406;-55
2022/08/01 08:05:37;;;;;;;;;1.25;1.25;;;;;25.30;49.31;101487.28;5099320;27;45358;-57
2022/08/01 08:08:06;;;;;;;;;2.00;2.00;;;;;25.33;49.34;101497.72;5099203;27;45374;-64
2022/08/01 08:10:32;;;;;;;;;2.20;1.00;;;;;25.36;49.37;101508.97;5098209;27;45441;-61
2022/08/01 08:12:58;;;;;;;;;1.80;1.80;;;;;25.35;49.74;101501.88;5099787;27;45226;-60
2022/08/01 08:15:23;;;;;;;;;3.00;2.00;;;;;25.44;49.92;101499.66;5099270;27;46031;-56
2022/08/01 08:17:49;;;;;;;;;3.00;3.00;;;;;25.55;49.68;101501.66;5099569;27;45317;-64
2022/08/01 08:20:15;;;;;;;;;1.50;1.50;;;;;25.68;48.84;101499.81;5099336;27;45415;-58
2022/08/01 08:22:40;;;;;;;;;1.50;1.50;;;;;25.95;48.75;101506.63;5099274;27;45484;-61
2022/08/01 08:25:07;;;;;;;;;2.00;2.00;;;;;26.33;47.68;101505.44;5099569;27;45402;-62
2022/08/01 08:27:32;;;;;;;;;2.20;2.20;;;;;26.65;46.58;101505.22;5099044;27;45336;-55
2022/08/01 08:29:58;;;;;;;;;6.25;2.75;;;;;26.93;45.97;101504.53;5099216;27;45424;-56
2022/08/01 08:32:23;;;;;;;;;2.75;2.75;;;;;27.29;45.45;101504.28;5099262;27;45782;-55
2022/08/01 08:34:49;;;;;;;;;2.00;2.00;;;;;27.86;44.42;101506.34;5098595;27;45395;-55
2022/08/01 08:37:14;;;;;;;;;5.25;3.25;;;;;28.00;43.95;101509.63;5099016;27;45453;-60
2022/08/01 08:39:39;;;;;;;;;3.00;2.00;;;;;27.75;44.24;101510.75;5099085;27;45446;-55
2022/08/01 08:42:10;;;;;;;;;3.50;3.00;;;;;27.38;44.86;101493.00;5099206;27;45347;-63
2022/08/01 08:44:36;;;;;;;;;2.80;2.60;;;;;27.39;45.00;101492.78;5098633;27;46429;-62
2022/08/01 08:47:05;;;;;;;;;2.00;2.00;;;;;27.40;45.06;101488.13;5098380;27;45496;-55
2022/08/01 08:49:31;;;;;;;;;3.60;2.60;;;;;27.41;44.81;101487.06;5099093;27;45259;-64
2022/08/01 08:51:59;;;;;;;;;2.40;2.00;;;;;27.59;44.65;101486.88;5098758;27;45425;-63
2022/08/01 08:54:25;;;;;;;;;2.00;2.00;;;;;28.06;43.47;101479.41;5098390;27;47261;-61
2022/08/01 08:56:51;;;;;;;;;3.50;2.50;;;;;28.80;41.79;101473.00;5098621;27;45365;-64
2022/08/01 08:59:17;;;;;;;;;4.20;3.00;;;;;29.77;39.95;101471.59;5098401;27;45601;-66
2022/08/01 09:01:43;;;;;;;;;1.75;1.75;;;;;31.41;37.88;101471.03;5098795;27;45310;-61
2022/08/01 09:04:08;;;;;;;;;2.50;2.00;;;;;31.95;36.70;101466.00;5098482;27;46326;-63
2022/08/01 09:06:34;;;;;;;;;2.00;2.00;;;;;31.58;37.12;101473.56;5097127;27;45456;-62
2022/08/01 09:09:00;;;;;;;;;4.20;4.20;;;;;31.19;38.14;101480.25;5098327;27;45352;-64
2022/08/01 09:11:26;;;;;;;;;3.50;3.50;;;;;30.87;38.38;101474.81;5098538;27;45227;-58
2022/08/01 09:14:06;;;;;;;;;3.00;2.50;;;;;30.68;38.94;101479.88;5098253;27;45955;-61
2022/08/01 09:16:33;;;;;;;;;1.60;0.20;;;;;30.62;37.94;101466.38;5097950;27;45377;-59
2022/08/01 09:19:17;;;;;;;;;2.00;2.00;;;;;30.52;37.90;101478.94;5098191;27;45329;-61
2022/08/01 09:22:11;;;;;;;;;1.80;1.80;;;;;30.34;37.70;101484.81;5098311;27;45481;-63
2022/08/01 09:24:39;;;;;;;;;2.00;2.00;;;;;29.94;38.07;101480.56;5096790;27;47207;-62
2022/08/01 09:27:19;;;;;;;;;3.00;1.80;;;;;29.42;39.11;101486.50;5098088;27;45263;-65
2022/08/01 09:29:44;;;;;;;;;2.00;2.00;;;;;28.97;39.80;101487.50;5098267;27;45306;-64
2022/08/01 09:32:10;;;;;;;;;3.00;3.00;;;;;28.58;41.26;101503.84;5096892;27;45456;-64
2022/08/01 09:34:35;;;;;;;;;3.00;2.25;;;;;28.22;41.79;101499.63;5097504;27;46871;-63
2022/08/01 09:37:02;;;;;;;;;2.75;1.75;;;;;27.91;42.24;101492.75;5097690;27;45367;-64
2022/08/01 09:39:36;;;;;;;;;3.80;2.20;;;;;27.57;43.03;101498.06;5097911;27;45345;-64
2022/08/01 09:42:20;;;;;;;;;3.40;3.40;;;;;27.27;43.54;101495.53;5097957;27;45463;-64
2022/08/01 09:44:45;;;;;;;;;2.00;2.00;;;;;27.00;44.17;101486.94;5097783;27;46155;-61
2022/08/01 09:47:12;;;;;;;;;2.25;2.25;;;;;26.79;44.52;101487.53;5097774;27;45448;-64
2022/08/01 09:49:40;;;;;;;;;3.40;2.40;;;;;26.62;45.24;101506.50;5097911;27;45337;-56
2022/08/01 09:52:16;;;;;;;;;1.80;1.80;;;;;26.48;45.20;101494.16;5097889;27;45479;-63
2022/08/01 09:54:43;;;;;;;;;2.00;2.00;;;;;26.33;45.66;101503.56;5097764;27;45471;-61
2022/08/01 09:57:14;;;;;;;;;2.60;2.60;;;;;26.22;45.74;101507.09;5097406;27;45449;-57
2022/08/01 09:59:43;;;;;;;;;7.20;2.20;;;;;26.13;45.54;101508.50;5097064;27;45387;-59
2022/08/01 10:02:12;;;;;;;;;3.00;2.60;;;;;26.34;45.19;101504.41;5097835;27;45462;-63
2022/08/01 10:04:45;;;;;;;;;3.80;3.00;;;;;27.25;44.10;101502.28;5097241;27;45319;-63
2022/08/01 10:07:11;;;;;;;;;1.40;1.40;;;;;27.91;42.49;101491.94;5097401;27;45299;-64
2022/08/01 10:09:37;;;;;;;;;3.00;2.25;;;;;28.92;40.55;101487.41;5097385;27;45287;-64
2022/08/01 10:12:03;;;;;;;;;2.25;2.25;;;;;31.33;37.25;101493.53;5097708;27;45410;-59
2022/08/01 10:14:30;;;;;;;;;2.80;2.00;;;;;31.49;36.38;101496.06;5097302;27;45436;-57
2022/08/01 10:16:57;;;;;;;;;3.00;3.00;;;;;30.86;37.18;101484.16;5095734;27;45390;-56
2022/08/01 10:19:25;;;;;;;;;4.00;2.80;;;;;30.65;37.59;101496.06;5097435;27;45357;-64
2022/08/01 10:21:53;;;;;;;;;2.60;2.60;;;;;31.03;36.81;101495.81;5097897;27;45318;-62
2022/08/01 10:24:20;;;;;;;;;2.60;2.00;;;;;31.49;35.93;101495.25;5097275;27;47222;-57
2022/08/01 10:26:51;;;;;;;;;3.00;3.00;;;;;31.37;36.14;101492.72;5097360;27;45478;-65
2022/08/01 10:29:20;;;;;;;;;2.60;2.00;;;;;33.99;32.84;101490.44;5097650;27;45396;-63
2022/08/01 10:31:46;;;;;;;;;4.00;2.20;;;;;36.43;28.85;101494.34;5097684;27;45267;-59
2022/08/01 10:34:15;;;;;;;;;3.80;3.00;;;;;35.83;29.33;101493.34;5097149;27;45511;-60
2022/08/01 10:36:43;;;;;;;;;3.20;3.20;;;;;34.98;30.61;101494.94;5097293;27;45400;-62
2022/08/01 10:39:11;;;;;;;;;2.20;2.20;;;;;34.62;30.92;101486.13;5097580;27;45342;-63
2022/08/01 10:41:38;;;;;;;;;3.00;3.00;;;;;34.34;31.08;101485.75;5097743;27;45356;-54
2022/08/01 10:44:05;;;;;;;;;3.80;3.40;;;;;33.84;31.88;101485.00;5097268;27;45226;-57
2022/08/01 10:46:31;;;;;;;;;2.80;2.00;;;;;33.28;32.78;101483.28;5097184;27;45471;-63
2022/08/01 10:49:03;;;;;;;;;5.00;2.00;;;;;32.49;32.91;101442.66;5097466;27;45279;-61
2022/08/01 10:51:29;;;;;;;;;4.20;3.40;;;;;32.35;33.69;101483.66;5097559;27;45203;-57
2022/08/01 10:53:54;;;;;;;;;1.25;1.25;;;;;31.88;34.63;101490.19;5096952;27;46066;-62
2022/08/01 10:56:22;;;;;;;;;2.75;2.75;;;;;31.35;35.40;101494.94;5096962;27;45341;-64
2022/08/01 10:58:48;;;;;;;;;3.60;3.20;;;;;30.79;36.21;101489.88;5097062;27;45292;-64
2022/08/01 11:01:26;;;;;;;;;3.60;3.20;;;;;30.41;37.27;101487.34;5097130;27;45321;-63
2022/08/01 11:04:00;;;;;;;;;5.00;3.40;;;;;30.21;37.03;101491.53;5096840;27;47061;-56
2022/08/01 11:06:33;;;;;;;;;5.60;3.80;;;;;30.17;37.15;101484.09;5096796;27;45471;-55
2022/08/01 11:09:01;;;;;;;;;4.40;4.20;;;;;30.21;36.97;101483.31;5096810;27;45408;-57
2022/08/01 11:11:27;;;;;;;;;3.20;3.20;;;;;30.14;37.47;101479.94;5098659;27;45241;-64
2022/08/01 11:14:11;;;;;;;;;5.20;4.00;;;;;30.24;36.95;101490.22;5099994;27;46401;-63
2022/08/01 11:16:38;;;;;;;;;3.40;3.40;;;;;30.41;36.85;101485.41;5098648;27;45277;-61
2022/08/01 11:19:04;;;;;;;;;5.00;3.20;;;;;30.70;37.02;101490.59;5100297;27;45366;-55
2022/08/01 11:22:00;;;;;;;;;3.80;2.60;;;;;30.76;36.81;101490.41;5100229;27;45276;-56
2022/08/01 11:24:47;;;;;;;;;6.20;3.00;;;;;30.69;36.77;101491.69;5076818;28;45427;-55
2022/08/01 11:27:23;;;;;;;;;2.60;2.60;;;;;30.53;37.02;101485.25;5077469;28;45375;-64